sensor_id;sensor_type;location;lat;lon;timestamp;P1;durP1;ratioP1;P2;durP2;ratioP2
20731;SDS011;10527;52.124;5.196;2023-05-23T00:02:12;18.55;;;9.10;;
20731;SDS011;10527;52.124;5.196;2023-05-23T00:04:40;16.02;;;8.75;;
20731;SDS011;10527;52.124;5.196;2023-05-23T00:07:08;21.88;;;8.85;;
20731;SDS011;10527;52.124;5.196;2023-05-23T00:09:36;22.75;;;9.18;;
20731;SDS011;10527;52.124;5.196;2023-05-23T00:12:03;17.15;;;8.23;;
20731;SDS011;10527;52.124;5.196;2023-05-23T00:14:30;15.85;;;8.15;;
20731;SDS011;10527;52.124;5.196;2023-05-23T00:16:59;17.92;;;8.02;;
20731;SDS011;10527;52.124;5.196;2023-05-23T00:19:26;12.90;;;7.60;;
20731;SDS011;10527;52.124;5.196;2023-05-23T00:21:53;16.60;;;7.88;;
20731;SDS011;10527;52.124;5.196;2023-05-23T00:24:23;16.05;;;9.55;;
20731;SDS011;10527;52.124;5.196;2023-05-23T00:26:50;17.30;;;8.50;;
20731;SDS011;10527;52.124;5.196;2023-05-23T00:29:17;17.95;;;8.82;;
20731;SDS011;10527;52.124;5.196;2023-05-23T00:31:45;14.73;;;8.02;;
20731;SDS011;10527;52.124;5.196;2023-05-23T00:34:13;14.65;;;8.38;;
20731;SDS011;10527;52.124;5.196;2023-05-23T00:36:44;14.15;;;9.02;;
20731;SDS011;10527;52.124;5.196;2023-05-23T00:39:15;14.52;;;8.75;;
20731;SDS011;10527;52.124;5.196;2023-05-23T00:41:46;14.45;;;9.52;;
20731;SDS011;10527;52.124;5.196;2023-05-23T00:44:18;22.15;;;10.20;;
20731;SDS011;10527;52.124;5.196;2023-05-23T00:46:56;18.92;;;9.90;;
20731;SDS011;10527;52.124;5.196;2023-05-23T00:49:34;21.55;;;10.75;;
20731;SDS011;10527;52.124;5.196;2023-05-23T00:52:01;21.15;;;10.63;;
20731;SDS011;10527;52.124;5.196;2023-05-23T00:54:29;20.02;;;11.55;;
20731;SDS011;10527;52.124;5.196;2023-05-23T00:56:56;18.42;;;10.10;;
20731;SDS011;10527;52.124;5.196;2023-05-23T00:59:24;21.10;;;11.40;;
20731;SDS011;10527;52.124;5.196;2023-05-23T01:01:53;17.98;;;10.15;;
20731;SDS011;10527;52.124;5.196;2023-05-23T01:04:22;16.20;;;9.00;;
20731;SDS011;10527;52.124;5.196;2023-05-23T01:06:53;17.50;;;9.43;;
20731;SDS011;10527;52.124;5.196;2023-05-23T01:09:22;22.90;;;10.23;;
20731;SDS011;10527;52.124;5.196;2023-05-23T01:11:57;14.82;;;8.23;;
20731;SDS011;10527;52.124;5.196;2023-05-23T01:14:55;13.57;;;7.25;;
20731;SDS011;10527;52.124;5.196;2023-05-23T01:17:40;9.95;;;6.18;;
20731;SDS011;10527;52.124;5.196;2023-05-23T01:20:24;10.52;;;5.72;;
20731;SDS011;10527;52.124;5.196;2023-05-23T01:28:53;6.45;;;4.15;;
20731;SDS011;10527;52.124;5.196;2023-05-23T01:31:30;7.45;;;4.10;;
20731;SDS011;10527;52.124;5.196;2023-05-23T01:34:00;6.28;;;4.13;;
20731;SDS011;10527;52.124;5.196;2023-05-23T01:36:28;8.23;;;4.18;;
20731;SDS011;10527;52.124;5.196;2023-05-23T01:39:02;7.28;;;4.43;;
20731;SDS011;10527;52.124;5.196;2023-05-23T01:41:29;6.90;;;4.20;;
20731;SDS011;10527;52.124;5.196;2023-05-23T01:43:59;6.68;;;3.97;;
20731;SDS011;10527;52.124;5.196;2023-05-23T01:46:26;5.70;;;3.97;;
20731;SDS011;10527;52.124;5.196;2023-05-23T01:48:56;6.68;;;4.10;;
20731;SDS011;10527;52.124;5.196;2023-05-23T01:51:27;5.95;;;3.90;;
20731;SDS011;10527;52.124;5.196;2023-05-23T01:53:55;7.05;;;4.13;;
20731;SDS011;10527;52.124;5.196;2023-05-23T01:56:23;6.28;;;3.65;;
20731;SDS011;10527;52.124;5.196;2023-05-23T01:58:52;7.15;;;4.68;;
20731;SDS011;10527;52.124;5.196;2023-05-23T02:01:19;5.32;;;3.65;;
20731;SDS011;10527;52.124;5.196;2023-05-23T02:03:47;8.68;;;4.43;;
20731;SDS011;10527;52.124;5.196;2023-05-23T02:06:14;7.40;;;4.43;;
20731;SDS011;10527;52.124;5.196;2023-05-23T02:08:41;12.73;;;4.38;;
20731;SDS011;10527;52.124;5.196;2023-05-23T02:11:08;9.98;;;5.05;;
20731;SDS011;10527;52.124;5.196;2023-05-23T02:13:35;10.18;;;5.22;;
20731;SDS011;10527;52.124;5.196;2023-05-23T02:16:02;11.38;;;5.07;;
20731;SDS011;10527;52.124;5.196;2023-05-23T02:18:29;8.73;;;4.35;;
20731;SDS011;10527;52.124;5.196;2023-05-23T02:20:56;9.55;;;6.05;;
20731;SDS011;10527;52.124;5.196;2023-05-23T02:23:23;8.65;;;4.55;;
20731;SDS011;10527;52.124;5.196;2023-05-23T02:25:50;9.60;;;4.90;;
20731;SDS011;10527;52.124;5.196;2023-05-23T02:28:18;9.52;;;4.97;;
20731;SDS011;10527;52.124;5.196;2023-05-23T02:30:45;12.30;;;6.90;;
20731;SDS011;10527;52.124;5.196;2023-05-23T02:33:11;14.52;;;4.75;;
20731;SDS011;10527;52.124;5.196;2023-05-23T02:35:38;11.48;;;5.07;;
20731;SDS011;10527;52.124;5.196;2023-05-23T02:38:08;8.90;;;5.07;;
20731;SDS011;10527;52.124;5.196;2023-05-23T02:40:37;12.60;;;6.47;;
20731;SDS011;10527;52.124;5.196;2023-05-23T02:43:04;12.23;;;5.50;;
20731;SDS011;10527;52.124;5.196;2023-05-23T02:45:31;10.38;;;5.82;;
20731;SDS011;10527;52.124;5.196;2023-05-23T02:47:58;11.57;;;5.20;;
20731;SDS011;10527;52.124;5.196;2023-05-23T02:50:25;12.15;;;6.63;;
20731;SDS011;10527;52.124;5.196;2023-05-23T02:52:52;11.80;;;5.97;;
20731;SDS011;10527;52.124;5.196;2023-05-23T02:55:19;12.48;;;5.95;;
20731;SDS011;10527;52.124;5.196;2023-05-23T02:57:46;10.68;;;5.22;;
20731;SDS011;10527;52.124;5.196;2023-05-23T03:00:13;13.63;;;6.25;;
20731;SDS011;10527;52.124;5.196;2023-05-23T03:02:41;13.80;;;6.05;;
20731;SDS011;10527;52.124;5.196;2023-05-23T03:05:08;16.08;;;6.55;;
20731;SDS011;10527;52.124;5.196;2023-05-23T03:07:35;14.90;;;5.35;;
20731;SDS011;10527;52.124;5.196;2023-05-23T03:10:02;10.32;;;5.50;;
20731;SDS011;10527;52.124;5.196;2023-05-23T03:12:29;17.02;;;6.63;;
20731;SDS011;10527;52.124;5.196;2023-05-23T03:14:56;20.70;;;6.82;;
20731;SDS011;10527;52.124;5.196;2023-05-23T03:17:23;14.88;;;6.18;;
20731;SDS011;10527;52.124;5.196;2023-05-23T03:19:51;15.60;;;6.10;;
20731;SDS011;10527;52.124;5.196;2023-05-23T03:22:18;14.27;;;6.65;;
20731;SDS011;10527;52.124;5.196;2023-05-23T03:24:45;14.57;;;6.28;;
20731;SDS011;10527;52.124;5.196;2023-05-23T03:27:12;15.18;;;7.03;;
20731;SDS011;10527;52.124;5.196;2023-05-23T03:29:38;20.25;;;7.30;;
20731;SDS011;10527;52.124;5.196;2023-05-23T03:32:06;18.80;;;6.88;;
20731;SDS011;10527;52.124;5.196;2023-05-23T03:34:33;16.48;;;7.40;;
20731;SDS011;10527;52.124;5.196;2023-05-23T03:37:01;18.25;;;6.05;;
20731;SDS011;10527;52.124;5.196;2023-05-23T03:39:29;15.85;;;6.32;;
20731;SDS011;10527;52.124;5.196;2023-05-23T03:41:56;13.68;;;6.22;;
20731;SDS011;10527;52.124;5.196;2023-05-23T03:44:23;16.65;;;6.60;;
20731;SDS011;10527;52.124;5.196;2023-05-23T03:46:51;13.25;;;6.50;;
20731;SDS011;10527;52.124;5.196;2023-05-23T03:49:18;13.13;;;6.15;;
20731;SDS011;10527;52.124;5.196;2023-05-23T03:51:45;15.23;;;5.97;;
20731;SDS011;10527;52.124;5.196;2023-05-23T03:54:11;12.75;;;7.15;;
20731;SDS011;10527;52.124;5.196;2023-05-23T03:56:38;16.83;;;6.50;;
20731;SDS011;10527;52.124;5.196;2023-05-23T03:59:05;15.02;;;6.78;;
20731;SDS011;10527;52.124;5.196;2023-05-23T04:01:32;14.00;;;6.82;;
20731;SDS011;10527;52.124;5.196;2023-05-23T04:03:59;18.00;;;5.15;;
20731;SDS011;10527;52.124;5.196;2023-05-23T04:06:26;11.82;;;5.10;;
20731;SDS011;10527;52.124;5.196;2023-05-23T04:08:55;14.60;;;5.30;;
20731;SDS011;10527;52.124;5.196;2023-05-23T04:11:22;14.98;;;4.78;;
20731;SDS011;10527;52.124;5.196;2023-05-23T04:13:49;13.90;;;5.13;;
20731;SDS011;10527;52.124;5.196;2023-05-23T04:16:17;12.25;;;4.55;;
20731;SDS011;10527;52.124;5.196;2023-05-23T04:18:44;11.75;;;4.28;;
20731;SDS011;10527;52.124;5.196;2023-05-23T04:21:12;14.27;;;3.88;;
20731;SDS011;10527;52.124;5.196;2023-05-23T04:23:39;15.25;;;5.20;;
20731;SDS011;10527;52.124;5.196;2023-05-23T04:26:06;10.18;;;3.95;;
20731;SDS011;10527;52.124;5.196;2023-05-23T04:28:33;9.32;;;4.07;;
20731;SDS011;10527;52.124;5.196;2023-05-23T04:30:59;12.43;;;4.15;;
20731;SDS011;10527;52.124;5.196;2023-05-23T04:33:28;10.45;;;3.63;;
20731;SDS011;10527;52.124;5.196;2023-05-23T04:35:55;12.50;;;4.68;;
20731;SDS011;10527;52.124;5.196;2023-05-23T04:38:22;9.95;;;3.85;;
20731;SDS011;10527;52.124;5.196;2023-05-23T04:40:53;7.70;;;3.38;;
20731;SDS011;10527;52.124;5.196;2023-05-23T04:43:19;9.60;;;3.53;;
20731;SDS011;10527;52.124;5.196;2023-05-23T04:45:47;11.70;;;4.38;;
20731;SDS011;10527;52.124;5.196;2023-05-23T04:48:19;15.75;;;4.00;;
20731;SDS011;10527;52.124;5.196;2023-05-23T04:50:47;11.60;;;4.43;;
20731;SDS011;10527;52.124;5.196;2023-05-23T04:53:16;12.05;;;3.65;;
20731;SDS011;10527;52.124;5.196;2023-05-23T04:55:43;13.90;;;4.15;;
20731;SDS011;10527;52.124;5.196;2023-05-23T04:58:10;12.02;;;3.85;;
20731;SDS011;10527;52.124;5.196;2023-05-23T05:00:38;11.55;;;3.80;;
20731;SDS011;10527;52.124;5.196;2023-05-23T05:03:05;11.15;;;3.33;;
20731;SDS011;10527;52.124;5.196;2023-05-23T05:05:34;11.48;;;3.95;;
20731;SDS011;10527;52.124;5.196;2023-05-23T05:08:02;15.77;;;3.92;;
20731;SDS011;10527;52.124;5.196;2023-05-23T05:10:29;12.23;;;3.10;;
20731;SDS011;10527;52.124;5.196;2023-05-23T05:12:56;9.27;;;3.90;;
20731;SDS011;10527;52.124;5.196;2023-05-23T05:15:22;10.25;;;3.80;;
20731;SDS011;10527;52.124;5.196;2023-05-23T05:17:50;9.40;;;3.65;;
20731;SDS011;10527;52.124;5.196;2023-05-23T05:20:16;10.90;;;3.10;;
20731;SDS011;10527;52.124;5.196;2023-05-23T05:22:44;6.93;;;2.92;;
20731;SDS011;10527;52.124;5.196;2023-05-23T05:25:11;10.00;;;3.83;;
20731;SDS011;10527;52.124;5.196;2023-05-23T05:27:40;9.73;;;4.05;;
20731;SDS011;10527;52.124;5.196;2023-05-23T05:30:08;10.55;;;3.97;;
20731;SDS011;10527;52.124;5.196;2023-05-23T05:32:36;9.18;;;4.15;;
20731;SDS011;10527;52.124;5.196;2023-05-23T05:35:03;10.93;;;4.15;;
20731;SDS011;10527;52.124;5.196;2023-05-23T05:37:30;13.02;;;4.68;;
20731;SDS011;10527;52.124;5.196;2023-05-23T05:39:57;12.02;;;3.88;;
20731;SDS011;10527;52.124;5.196;2023-05-23T05:42:24;9.48;;;4.30;;
20731;SDS011;10527;52.124;5.196;2023-05-23T05:44:51;9.80;;;4.35;;
20731;SDS011;10527;52.124;5.196;2023-05-23T05:47:17;10.85;;;4.82;;
20731;SDS011;10527;52.124;5.196;2023-05-23T05:49:44;8.63;;;4.80;;
20731;SDS011;10527;52.124;5.196;2023-05-23T05:52:11;10.98;;;4.45;;
20731;SDS011;10527;52.124;5.196;2023-05-23T05:54:38;12.93;;;5.40;;
20731;SDS011;10527;52.124;5.196;2023-05-23T05:57:05;14.70;;;6.55;;
20731;SDS011;10527;52.124;5.196;2023-05-23T05:59:33;13.20;;;4.35;;
20731;SDS011;10527;52.124;5.196;2023-05-23T06:02:00;8.52;;;3.70;;
20731;SDS011;10527;52.124;5.196;2023-05-23T06:04:28;9.40;;;3.88;;
20731;SDS011;10527;52.124;5.196;2023-05-23T06:06:56;10.45;;;4.32;;
20731;SDS011;10527;52.124;5.196;2023-05-23T06:09:23;13.80;;;4.63;;
20731;SDS011;10527;52.124;5.196;2023-05-23T06:11:50;13.57;;;5.38;;
20731;SDS011;10527;52.124;5.196;2023-05-23T06:14:16;10.52;;;4.93;;
20731;SDS011;10527;52.124;5.196;2023-05-23T06:16:44;9.77;;;4.47;;
20731;SDS011;10527;52.124;5.196;2023-05-23T06:19:11;10.85;;;4.47;;
20731;SDS011;10527;52.124;5.196;2023-05-23T06:21:38;12.93;;;4.20;;
20731;SDS011;10527;52.124;5.196;2023-05-23T06:24:05;22.35;;;4.97;;
20731;SDS011;10527;52.124;5.196;2023-05-23T06:26:32;11.93;;;4.70;;
20731;SDS011;10527;52.124;5.196;2023-05-23T06:28:59;13.70;;;5.45;;
20731;SDS011;10527;52.124;5.196;2023-05-23T06:31:26;9.55;;;5.28;;
20731;SDS011;10527;52.124;5.196;2023-05-23T06:33:53;18.23;;;6.35;;
20731;SDS011;10527;52.124;5.196;2023-05-23T06:36:20;11.95;;;5.00;;
20731;SDS011;10527;52.124;5.196;2023-05-23T06:38:47;11.18;;;4.28;;
20731;SDS011;10527;52.124;5.196;2023-05-23T06:41:13;9.27;;;3.92;;
20731;SDS011;10527;52.124;5.196;2023-05-23T06:43:40;7.90;;;4.47;;
20731;SDS011;10527;52.124;5.196;2023-05-23T06:46:07;12.85;;;5.47;;
20731;SDS011;10527;52.124;5.196;2023-05-23T06:48:34;9.38;;;4.03;;
20731;SDS011;10527;52.124;5.196;2023-05-23T06:51:00;8.82;;;3.72;;
20731;SDS011;10527;52.124;5.196;2023-05-23T06:53:27;7.97;;;3.22;;
20731;SDS011;10527;52.124;5.196;2023-05-23T06:55:54;7.28;;;3.17;;
20731;SDS011;10527;52.124;5.196;2023-05-23T06:58:21;7.03;;;2.97;;
20731;SDS011;10527;52.124;5.196;2023-05-23T07:00:50;7.53;;;2.88;;
20731;SDS011;10527;52.124;5.196;2023-05-23T07:03:17;6.00;;;2.90;;
20731;SDS011;10527;52.124;5.196;2023-05-23T07:05:44;9.60;;;3.22;;
20731;SDS011;10527;52.124;5.196;2023-05-23T07:08:11;6.50;;;2.67;;
20731;SDS011;10527;52.124;5.196;2023-05-23T07:10:38;10.98;;;2.47;;
20731;SDS011;10527;52.124;5.196;2023-05-23T07:13:07;6.18;;;1.77;;
20731;SDS011;10527;52.124;5.196;2023-05-23T07:15:34;7.28;;;2.22;;
20731;SDS011;10527;52.124;5.196;2023-05-23T07:18:01;8.38;;;2.10;;
20731;SDS011;10527;52.124;5.196;2023-05-23T07:20:28;6.68;;;2.00;;
20731;SDS011;10527;52.124;5.196;2023-05-23T07:22:55;14.00;;;2.78;;
20731;SDS011;10527;52.124;5.196;2023-05-23T07:25:22;7.47;;;1.88;;
20731;SDS011;10527;52.124;5.196;2023-05-23T07:27:49;10.52;;;2.90;;
20731;SDS011;10527;52.124;5.196;2023-05-23T07:30:20;12.40;;;1.80;;
20731;SDS011;10527;52.124;5.196;2023-05-23T07:32:47;7.75;;;1.70;;
20731;SDS011;10527;52.124;5.196;2023-05-23T07:35:14;6.13;;;1.70;;
20731;SDS011;10527;52.124;5.196;2023-05-23T07:37:43;7.57;;;1.98;;
20731;SDS011;10527;52.124;5.196;2023-05-23T07:40:10;12.18;;;3.72;;
20731;SDS011;10527;52.124;5.196;2023-05-23T07:42:37;8.00;;;2.95;;
20731;SDS011;10527;52.124;5.196;2023-05-23T07:45:04;5.55;;;1.80;;
20731;SDS011;10527;52.124;5.196;2023-05-23T07:47:31;12.27;;;2.50;;
20731;SDS011;10527;52.124;5.196;2023-05-23T07:49:58;9.23;;;2.10;;
20731;SDS011;10527;52.124;5.196;2023-05-23T07:52:30;11.20;;;2.78;;
20731;SDS011;10527;52.124;5.196;2023-05-23T07:54:57;9.63;;;1.83;;
20731;SDS011;10527;52.124;5.196;2023-05-23T07:57:25;12.70;;;2.10;;
20731;SDS011;10527;52.124;5.196;2023-05-23T07:59:52;8.90;;;2.15;;
20731;SDS011;10527;52.124;5.196;2023-05-23T08:02:19;11.35;;;2.13;;
20731;SDS011;10527;52.124;5.196;2023-05-23T08:04:46;10.82;;;2.13;;
20731;SDS011;10527;52.124;5.196;2023-05-23T08:07:15;12.73;;;2.33;;
20731;SDS011;10527;52.124;5.196;2023-05-23T08:09:44;6.88;;;1.73;;
20731;SDS011;10527;52.124;5.196;2023-05-23T08:12:11;11.10;;;2.03;;
20731;SDS011;10527;52.124;5.196;2023-05-23T08:14:38;6.07;;;1.70;;
20731;SDS011;10527;52.124;5.196;2023-05-23T08:17:17;9.10;;;1.85;;
20731;SDS011;10527;52.124;5.196;2023-05-23T08:19:44;10.85;;;2.67;;
20731;SDS011;10527;52.124;5.196;2023-05-23T08:22:11;13.07;;;3.45;;
20731;SDS011;10527;52.124;5.196;2023-05-23T08:24:38;6.75;;;1.88;;
20731;SDS011;10527;52.124;5.196;2023-05-23T08:27:05;7.70;;;1.98;;
20731;SDS011;10527;52.124;5.196;2023-05-23T08:29:33;9.75;;;2.38;;
20731;SDS011;10527;52.124;5.196;2023-05-23T08:32:00;7.25;;;1.85;;
20731;SDS011;10527;52.124;5.196;2023-05-23T08:34:27;7.47;;;1.83;;
20731;SDS011;10527;52.124;5.196;2023-05-23T08:36:54;6.60;;;1.90;;
20731;SDS011;10527;52.124;5.196;2023-05-23T08:39:21;9.20;;;2.70;;
20731;SDS011;10527;52.124;5.196;2023-05-23T08:41:48;9.30;;;2.25;;
20731;SDS011;10527;52.124;5.196;2023-05-23T08:44:15;8.40;;;2.28;;
20731;SDS011;10527;52.124;5.196;2023-05-23T08:46:45;9.77;;;2.60;;
20731;SDS011;10527;52.124;5.196;2023-05-23T08:49:16;12.63;;;2.47;;
20731;SDS011;10527;52.124;5.196;2023-05-23T08:51:43;6.85;;;2.13;;
20731;SDS011;10527;52.124;5.196;2023-05-23T08:54:12;9.20;;;2.60;;
20731;SDS011;10527;52.124;5.196;2023-05-23T08:56:39;12.10;;;2.60;;
20731;SDS011;10527;52.124;5.196;2023-05-23T08:59:09;11.77;;;2.45;;
20731;SDS011;10527;52.124;5.196;2023-05-23T09:01:38;11.63;;;2.38;;
20731;SDS011;10527;52.124;5.196;2023-05-23T09:04:07;8.65;;;2.08;;
20731;SDS011;10527;52.124;5.196;2023-05-23T09:06:34;9.85;;;2.13;;
20731;SDS011;10527;52.124;5.196;2023-05-23T09:09:01;6.30;;;1.70;;
20731;SDS011;10527;52.124;5.196;2023-05-23T09:11:29;8.38;;;1.85;;
20731;SDS011;10527;52.124;5.196;2023-05-23T09:14:01;7.88;;;1.90;;
20731;SDS011;10527;52.124;5.196;2023-05-23T09:16:30;9.07;;;2.05;;
20731;SDS011;10527;52.124;5.196;2023-05-23T09:19:08;6.75;;;1.63;;
20731;SDS011;10527;52.124;5.196;2023-05-23T09:21:40;8.85;;;1.73;;
20731;SDS011;10527;52.124;5.196;2023-05-23T09:24:10;10.25;;;2.63;;
20731;SDS011;10527;52.124;5.196;2023-05-23T09:26:37;6.10;;;2.15;;
20731;SDS011;10527;52.124;5.196;2023-05-23T09:29:05;11.80;;;1.95;;
20731;SDS011;10527;52.124;5.196;2023-05-23T09:31:32;9.52;;;2.20;;
20731;SDS011;10527;52.124;5.196;2023-05-23T09:33:59;7.93;;;1.70;;
20731;SDS011;10527;52.124;5.196;2023-05-23T09:36:27;9.55;;;2.25;;
20731;SDS011;10527;52.124;5.196;2023-05-23T09:39:03;7.60;;;2.17;;
20731;SDS011;10527;52.124;5.196;2023-05-23T09:41:36;7.95;;;1.77;;
20731;SDS011;10527;52.124;5.196;2023-05-23T09:44:09;7.97;;;2.30;;
20731;SDS011;10527;52.124;5.196;2023-05-23T09:46:35;8.93;;;2.50;;
20731;SDS011;10527;52.124;5.196;2023-05-23T09:49:15;9.32;;;2.42;;
20731;SDS011;10527;52.124;5.196;2023-05-23T09:51:43;9.73;;;1.95;;
20731;SDS011;10527;52.124;5.196;2023-05-23T09:54:22;8.88;;;2.17;;
20731;SDS011;10527;52.124;5.196;2023-05-23T09:56:49;8.15;;;1.80;;
20731;SDS011;10527;52.124;5.196;2023-05-23T09:59:21;9.70;;;1.67;;
20731;SDS011;10527;52.124;5.196;2023-05-23T10:01:51;9.07;;;1.88;;
20731;SDS011;10527;52.124;5.196;2023-05-23T10:04:22;5.72;;;1.77;;
20731;SDS011;10527;52.124;5.196;2023-05-23T10:06:53;10.45;;;1.85;;
20731;SDS011;10527;52.124;5.196;2023-05-23T10:09:27;7.18;;;2.05;;
20731;SDS011;10527;52.124;5.196;2023-05-23T10:15:07;4.70;;;1.48;;
20731;SDS011;10527;52.124;5.196;2023-05-23T10:17:56;7.78;;;2.00;;
20731;SDS011;10527;52.124;5.196;2023-05-23T10:20:33;8.13;;;1.73;;
20731;SDS011;10527;52.124;5.196;2023-05-23T10:23:01;6.65;;;1.30;;
20731;SDS011;10527;52.124;5.196;2023-05-23T10:25:30;5.50;;;1.52;;
20731;SDS011;10527;52.124;5.196;2023-05-23T10:27:57;5.78;;;1.73;;
20731;SDS011;10527;52.124;5.196;2023-05-23T10:30:29;9.40;;;1.80;;
20731;SDS011;10527;52.124;5.196;2023-05-23T10:32:56;8.32;;;1.95;;
20731;SDS011;10527;52.124;5.196;2023-05-23T10:41:44;6.03;;;1.77;;
20731;SDS011;10527;52.124;5.196;2023-05-23T10:46:56;9.32;;;1.95;;
20731;SDS011;10527;52.124;5.196;2023-05-23T10:49:36;8.55;;;1.95;;
20731;SDS011;10527;52.124;5.196;2023-05-23T10:52:15;8.50;;;2.05;;
20731;SDS011;10527;52.124;5.196;2023-05-23T10:57:11;10.38;;;2.08;;
20731;SDS011;10527;52.124;5.196;2023-05-23T10:59:42;3.35;;;1.23;;
20731;SDS011;10527;52.124;5.196;2023-05-23T11:02:12;6.65;;;1.73;;
20731;SDS011;10527;52.124;5.196;2023-05-23T11:04:41;9.32;;;1.70;;
20731;SDS011;10527;52.124;5.196;2023-05-23T11:10:19;7.35;;;1.55;;
20731;SDS011;10527;52.124;5.196;2023-05-23T11:12:45;5.15;;;1.20;;
20731;SDS011;10527;52.124;5.196;2023-05-23T11:15:18;6.65;;;2.05;;
20731;SDS011;10527;52.124;5.196;2023-05-23T11:17:53;6.88;;;1.60;;
20731;SDS011;10527;52.124;5.196;2023-05-23T11:20:25;9.05;;;1.80;;
20731;SDS011;10527;52.124;5.196;2023-05-23T11:22:59;6.72;;;1.50;;
20731;SDS011;10527;52.124;5.196;2023-05-23T11:25:39;7.00;;;2.22;;
20731;SDS011;10527;52.124;5.196;2023-05-23T11:28:08;7.90;;;1.90;;
20731;SDS011;10527;52.124;5.196;2023-05-23T11:30:38;6.35;;;1.60;;
20731;SDS011;10527;52.124;5.196;2023-05-23T11:35:42;8.40;;;2.30;;
20731;SDS011;10527;52.124;5.196;2023-05-23T11:38:15;7.32;;;1.75;;
20731;SDS011;10527;52.124;5.196;2023-05-23T11:40:43;10.27;;;1.88;;
20731;SDS011;10527;52.124;5.196;2023-05-23T11:43:16;7.93;;;1.75;;
20731;SDS011;10527;52.124;5.196;2023-05-23T11:45:43;8.77;;;1.85;;
20731;SDS011;10527;52.124;5.196;2023-05-23T11:48:14;7.53;;;2.05;;
20731;SDS011;10527;52.124;5.196;2023-05-23T11:53:19;8.20;;;1.73;;
20731;SDS011;10527;52.124;5.196;2023-05-23T11:55:50;5.78;;;2.13;;
20731;SDS011;10527;52.124;5.196;2023-05-23T11:58:21;7.68;;;2.63;;
20731;SDS011;10527;52.124;5.196;2023-05-23T12:03:45;7.47;;;2.13;;
20731;SDS011;10527;52.124;5.196;2023-05-23T12:06:15;6.28;;;1.83;;
20731;SDS011;10527;52.124;5.196;2023-05-23T12:08:45;6.78;;;1.98;;
20731;SDS011;10527;52.124;5.196;2023-05-23T12:11:12;5.97;;;1.58;;
20731;SDS011;10527;52.124;5.196;2023-05-23T12:13:40;10.55;;;1.90;;
20731;SDS011;10527;52.124;5.196;2023-05-23T12:16:08;7.97;;;2.58;;
20731;SDS011;10527;52.124;5.196;2023-05-23T12:18:36;6.55;;;1.73;;
20731;SDS011;10527;52.124;5.196;2023-05-23T12:21:04;8.27;;;1.45;;
20731;SDS011;10527;52.124;5.196;2023-05-23T12:23:34;5.00;;;1.35;;
20731;SDS011;10527;52.124;5.196;2023-05-23T12:26:04;7.47;;;2.00;;
20731;SDS011;10527;52.124;5.196;2023-05-23T12:28:34;8.25;;;2.78;;
20731;SDS011;10527;52.124;5.196;2023-05-23T12:34:04;9.10;;;2.13;;
20731;SDS011;10527;52.124;5.196;2023-05-23T12:36:31;7.82;;;2.20;;
20731;SDS011;10527;52.124;5.196;2023-05-23T12:39:07;7.30;;;2.58;;
20731;SDS011;10527;52.124;5.196;2023-05-23T12:41:34;6.07;;;1.75;;
20731;SDS011;10527;52.124;5.196;2023-05-23T12:44:01;6.13;;;1.65;;
20731;SDS011;10527;52.124;5.196;2023-05-23T12:46:29;5.32;;;1.65;;
20731;SDS011;10527;52.124;5.196;2023-05-23T12:48:56;8.63;;;1.60;;
20731;SDS011;10527;52.124;5.196;2023-05-23T12:51:23;9.85;;;2.00;;
20731;SDS011;10527;52.124;5.196;2023-05-23T12:53:50;7.88;;;1.88;;
20731;SDS011;10527;52.124;5.196;2023-05-23T12:56:26;8.02;;;1.70;;
20731;SDS011;10527;52.124;5.196;2023-05-23T12:58:53;6.45;;;1.80;;
20731;SDS011;10527;52.124;5.196;2023-05-23T13:01:20;6.70;;;1.42;;
20731;SDS011;10527;52.124;5.196;2023-05-23T13:03:48;6.35;;;1.80;;
20731;SDS011;10527;52.124;5.196;2023-05-23T13:06:15;6.38;;;1.83;;
20731;SDS011;10527;52.124;5.196;2023-05-23T13:08:41;7.05;;;1.58;;
20731;SDS011;10527;52.124;5.196;2023-05-23T13:11:09;6.13;;;1.85;;
20731;SDS011;10527;52.124;5.196;2023-05-23T13:13:36;11.50;;;2.20;;
20731;SDS011;10527;52.124;5.196;2023-05-23T13:16:04;10.10;;;1.98;;
20731;SDS011;10527;52.124;5.196;2023-05-23T13:18:31;8.73;;;2.33;;
20731;SDS011;10527;52.124;5.196;2023-05-23T13:20:58;6.32;;;1.73;;
20731;SDS011;10527;52.124;5.196;2023-05-23T13:23:25;9.35;;;1.73;;
20731;SDS011;10527;52.124;5.196;2023-05-23T13:25:52;7.75;;;1.83;;
20731;SDS011;10527;52.124;5.196;2023-05-23T13:28:19;6.78;;;1.60;;
20731;SDS011;10527;52.124;5.196;2023-05-23T13:30:46;11.32;;;1.45;;
20731;SDS011;10527;52.124;5.196;2023-05-23T13:33:13;6.25;;;1.85;;
20731;SDS011;10527;52.124;5.196;2023-05-23T13:35:40;9.13;;;1.55;;
20731;SDS011;10527;52.124;5.196;2023-05-23T13:38:08;6.93;;;1.75;;
20731;SDS011;10527;52.124;5.196;2023-05-23T13:40:35;6.85;;;2.30;;
20731;SDS011;10527;52.124;5.196;2023-05-23T13:43:02;7.55;;;1.58;;
20731;SDS011;10527;52.124;5.196;2023-05-23T13:45:28;9.18;;;2.03;;
20731;SDS011;10527;52.124;5.196;2023-05-23T13:47:56;8.80;;;1.67;;
20731;SDS011;10527;52.124;5.196;2023-05-23T13:50:23;9.35;;;1.17;;
20731;SDS011;10527;52.124;5.196;2023-05-23T13:52:49;13.48;;;2.40;;
20731;SDS011;10527;52.124;5.196;2023-05-23T13:55:16;10.25;;;1.98;;
20731;SDS011;10527;52.124;5.196;2023-05-23T13:57:44;5.40;;;1.70;;
20731;SDS011;10527;52.124;5.196;2023-05-23T14:00:11;6.07;;;1.40;;
20731;SDS011;10527;52.124;5.196;2023-05-23T14:02:39;5.05;;;1.63;;
20731;SDS011;10527;52.124;5.196;2023-05-23T14:05:06;9.05;;;1.75;;
20731;SDS011;10527;52.124;5.196;2023-05-23T14:07:34;6.07;;;1.35;;
20731;SDS011;10527;52.124;5.196;2023-05-23T14:10:01;6.32;;;2.50;;
20731;SDS011;10527;52.124;5.196;2023-05-23T14:12:30;10.90;;;2.15;;
20731;SDS011;10527;52.124;5.196;2023-05-23T14:14:56;6.63;;;1.50;;
20731;SDS011;10527;52.124;5.196;2023-05-23T14:17:27;10.13;;;2.03;;
20731;SDS011;10527;52.124;5.196;2023-05-23T14:19:54;6.88;;;1.88;;
20731;SDS011;10527;52.124;5.196;2023-05-23T14:22:21;10.18;;;1.75;;
20731;SDS011;10527;52.124;5.196;2023-05-23T14:24:48;8.13;;;1.60;;
20731;SDS011;10527;52.124;5.196;2023-05-23T14:27:15;6.03;;;1.60;;
20731;SDS011;10527;52.124;5.196;2023-05-23T14:29:42;9.43;;;2.08;;
20731;SDS011;10527;52.124;5.196;2023-05-23T14:32:11;5.57;;;1.45;;
20731;SDS011;10527;52.124;5.196;2023-05-23T14:34:38;3.70;;;1.40;;
20731;SDS011;10527;52.124;5.196;2023-05-23T14:37:06;5.68;;;1.45;;
20731;SDS011;10527;52.124;5.196;2023-05-23T14:39:33;4.28;;;0.90;;
20731;SDS011;10527;52.124;5.196;2023-05-23T14:42:00;6.78;;;1.40;;
20731;SDS011;10527;52.124;5.196;2023-05-23T14:44:27;7.75;;;2.08;;
20731;SDS011;10527;52.124;5.196;2023-05-23T14:46:54;7.15;;;1.60;;
20731;SDS011;10527;52.124;5.196;2023-05-23T14:49:21;5.05;;;1.35;;
20731;SDS011;10527;52.124;5.196;2023-05-23T14:51:48;7.72;;;1.98;;
20731;SDS011;10527;52.124;5.196;2023-05-23T14:54:17;11.30;;;1.77;;
20731;SDS011;10527;52.124;5.196;2023-05-23T14:56:44;7.05;;;1.35;;
20731;SDS011;10527;52.124;5.196;2023-05-23T14:59:11;4.70;;;1.50;;
20731;SDS011;10527;52.124;5.196;2023-05-23T15:01:38;7.30;;;1.48;;
20731;SDS011;10527;52.124;5.196;2023-05-23T15:04:06;9.57;;;2.53;;
20731;SDS011;10527;52.124;5.196;2023-05-23T15:06:35;7.30;;;1.70;;
20731;SDS011;10527;52.124;5.196;2023-05-23T15:09:03;7.53;;;1.45;;
20731;SDS011;10527;52.124;5.196;2023-05-23T15:11:31;4.05;;;0.95;;
20731;SDS011;10527;52.124;5.196;2023-05-23T15:14:00;3.53;;;1.25;;
20731;SDS011;10527;52.124;5.196;2023-05-23T15:16:26;6.13;;;1.40;;
20731;SDS011;10527;52.124;5.196;2023-05-23T15:18:58;6.47;;;1.45;;
20731;SDS011;10527;52.124;5.196;2023-05-23T15:21:25;5.28;;;1.25;;
20731;SDS011;10527;52.124;5.196;2023-05-23T15:23:52;6.57;;;1.65;;